sensor_id;sensor_type;location;lat;lon;timestamp;temperature;humidity
37906;DHT22;23739;51.448;6.674;2023-08-21T00:01:48;20.00;50.50
37906;DHT22;23739;51.448;6.674;2023-08-21T00:04:13;19.90;48.30
37906;DHT22;23739;51.448;6.674;2023-08-21T00:06:39;19.90;49.00
37906;DHT22;23739;51.448;6.674;2023-08-21T00:09:05;19.80;48.60
37906;DHT22;23739;51.448;6.674;2023-08-21T00:11:30;19.90;48.90
37906;DHT22;23739;51.448;6.674;2023-08-21T00:13:56;19.90;48.30
37906;DHT22;23739;51.448;6.674;2023-08-21T00:16:22;19.90;46.30
37906;DHT22;23739;51.448;6.674;2023-08-21T00:18:48;19.90;48.80
37906;DHT22;23739;51.448;6.674;2023-08-21T00:21:14;19.90;44.30
37906;DHT22;23739;51.448;6.674;2023-08-21T00:23:39;19.80;49.00
37906;DHT22;23739;51.448;6.674;2023-08-21T00:26:05;19.80;53.20
37906;DHT22;23739;51.448;6.674;2023-08-21T00:28:31;19.70;51.60
37906;DHT22;23739;51.448;6.674;2023-08-21T00:31:05;19.70;53.90
37906;DHT22;23739;51.448;6.674;2023-08-21T00:33:32;19.80;50.20
37906;DHT22;23739;51.448;6.674;2023-08-21T00:35:58;19.80;49.80
37906;DHT22;23739;51.448;6.674;2023-08-21T00:38:24;19.80;50.30
37906;DHT22;23739;51.448;6.674;2023-08-21T00:40:50;19.80;46.30
37906;DHT22;23739;51.448;6.674;2023-08-21T00:43:16;19.70;54.10
37906;DHT22;23739;51.448;6.674;2023-08-21T00:45:44;19.60;54.90
37906;DHT22;23739;51.448;6.674;2023-08-21T00:48:11;19.60;53.80
37906;DHT22;23739;51.448;6.674;2023-08-21T00:50:37;19.60;55.00
37906;DHT22;23739;51.448;6.674;2023-08-21T00:53:03;19.60;55.20
37906;DHT22;23739;51.448;6.674;2023-08-21T00:55:31;19.50;55.10
37906;DHT22;23739;51.448;6.674;2023-08-21T00:57:58;19.50;58.20
37906;DHT22;23739;51.448;6.674;2023-08-21T01:00:25;19.40;58.10
37906;DHT22;23739;51.448;6.674;2023-08-21T01:02:52;19.40;60.10
37906;DHT22;23739;51.448;6.674;2023-08-21T01:05:18;19.40;61.90
37906;DHT22;23739;51.448;6.674;2023-08-21T01:08:01;19.30;61.30
37906;DHT22;23739;51.448;6.674;2023-08-21T01:15:46;19.20;65.60
37906;DHT22;23739;51.448;6.674;2023-08-21T01:18:13;19.20;65.30
37906;DHT22;23739;51.448;6.674;2023-08-21T01:20:41;19.10;65.50
37906;DHT22;23739;51.448;6.674;2023-08-21T01:23:06;19.10;66.30
37906;DHT22;23739;51.448;6.674;2023-08-21T01:25:32;19.10;65.40
37906;DHT22;23739;51.448;6.674;2023-08-21T01:27:58;19.10;66.40
37906;DHT22;23739;51.448;6.674;2023-08-21T01:30:26;19.00;68.40
37906;DHT22;23739;51.448;6.674;2023-08-21T01:33:02;19.00;63.70
37906;DHT22;23739;51.448;6.674;2023-08-21T01:35:31;19.10;59.30
37906;DHT22;23739;51.448;6.674;2023-08-21T01:37:59;19.00;60.00
37906;DHT22;23739;51.448;6.674;2023-08-21T01:40:25;19.00;68.10
37906;DHT22;23739;51.448;6.674;2023-08-21T01:42:53;18.90;69.60
37906;DHT22;23739;51.448;6.674;2023-08-21T01:45:19;18.80;69.90
37906;DHT22;23739;51.448;6.674;2023-08-21T01:47:45;18.80;74.10
37906;DHT22;23739;51.448;6.674;2023-08-21T01:50:11;18.70;70.70
37906;DHT22;23739;51.448;6.674;2023-08-21T01:52:36;18.90;68.00
37906;DHT22;23739;51.448;6.674;2023-08-21T01:55:02;18.80;69.40
37906;DHT22;23739;51.448;6.674;2023-08-21T01:57:29;18.90;67.40
37906;DHT22;23739;51.448;6.674;2023-08-21T01:59:55;18.80;68.70
37906;DHT22;23739;51.448;6.674;2023-08-21T02:02:20;18.90;66.70
37906;DHT22;23739;51.448;6.674;2023-08-21T02:04:46;18.90;67.40
37906;DHT22;23739;51.448;6.674;2023-08-21T02:07:12;18.90;66.70
37906;DHT22;23739;51.448;6.674;2023-08-21T02:09:38;18.70;71.60
37906;DHT22;23739;51.448;6.674;2023-08-21T02:12:04;18.60;72.90
37906;DHT22;23739;51.448;6.674;2023-08-21T02:14:30;18.70;72.40
37906;DHT22;23739;51.448;6.674;2023-08-21T02:16:55;18.70;71.10
37906;DHT22;23739;51.448;6.674;2023-08-21T02:19:21;18.70;70.10
37906;DHT22;23739;51.448;6.674;2023-08-21T02:21:47;18.70;68.20
37906;DHT22;23739;51.448;6.674;2023-08-21T02:24:13;18.70;68.60
37906;DHT22;23739;51.448;6.674;2023-08-21T02:26:38;18.70;70.40
37906;DHT22;23739;51.448;6.674;2023-08-21T02:29:04;18.70;68.30
37906;DHT22;23739;51.448;6.674;2023-08-21T02:31:30;18.70;69.90
37906;DHT22;23739;51.448;6.674;2023-08-21T02:33:56;18.70;68.30
37906;DHT22;23739;51.448;6.674;2023-08-21T02:36:21;18.60;68.50
37906;DHT22;23739;51.448;6.674;2023-08-21T02:38:47;18.60;69.90
37906;DHT22;23739;51.448;6.674;2023-08-21T02:41:13;18.60;71.00
37906;DHT22;23739;51.448;6.674;2023-08-21T02:43:39;18.50;72.80
37906;DHT22;23739;51.448;6.674;2023-08-21T02:46:04;18.50;73.70
37906;DHT22;23739;51.448;6.674;2023-08-21T02:48:30;18.50;72.80
37906;DHT22;23739;51.448;6.674;2023-08-21T02:50:55;18.50;72.10
37906;DHT22;23739;51.448;6.674;2023-08-21T02:53:21;18.60;67.80
37906;DHT22;23739;51.448;6.674;2023-08-21T02:55:47;18.60;68.60
37906;DHT22;23739;51.448;6.674;2023-08-21T02:58:13;18.60;68.80
37906;DHT22;23739;51.448;6.674;2023-08-21T03:00:39;18.60;69.90
37906;DHT22;23739;51.448;6.674;2023-08-21T03:03:04;18.70;61.30
37906;DHT22;23739;51.448;6.674;2023-08-21T03:05:30;18.80;58.90
37906;DHT22;23739;51.448;6.674;2023-08-21T03:07:56;18.90;56.90
37906;DHT22;23739;51.448;6.674;2023-08-21T03:10:22;18.80;61.10
37906;DHT22;23739;51.448;6.674;2023-08-21T03:12:49;18.80;62.10
37906;DHT22;23739;51.448;6.674;2023-08-21T03:15:15;18.80;59.50
37906;DHT22;23739;51.448;6.674;2023-08-21T03:17:41;18.90;57.40
37906;DHT22;23739;51.448;6.674;2023-08-21T03:20:07;18.90;59.20
37906;DHT22;23739;51.448;6.674;2023-08-21T03:22:33;18.80;61.70
37906;DHT22;23739;51.448;6.674;2023-08-21T03:24:59;18.80;64.20
37906;DHT22;23739;51.448;6.674;2023-08-21T03:27:25;18.70;66.60
37906;DHT22;23739;51.448;6.674;2023-08-21T03:29:51;18.60;70.30
37906;DHT22;23739;51.448;6.674;2023-08-21T03:32:17;18.50;72.10
37906;DHT22;23739;51.448;6.674;2023-08-21T03:34:43;18.50;64.10
37906;DHT22;23739;51.448;6.674;2023-08-21T03:37:10;18.60;58.40
37906;DHT22;23739;51.448;6.674;2023-08-21T03:39:36;18.70;56.90
37906;DHT22;23739;51.448;6.674;2023-08-21T03:42:01;18.70;53.70
37906;DHT22;23739;51.448;6.674;2023-08-21T03:44:27;18.70;53.90
37906;DHT22;23739;51.448;6.674;2023-08-21T03:46:53;18.80;52.40
37906;DHT22;23739;51.448;6.674;2023-08-21T03:49:19;18.80;50.90
37906;DHT22;23739;51.448;6.674;2023-08-21T03:51:44;18.80;50.30
37906;DHT22;23739;51.448;6.674;2023-08-21T03:54:10;18.80;49.50
37906;DHT22;23739;51.448;6.674;2023-08-21T03:56:36;18.90;48.60
37906;DHT22;23739;51.448;6.674;2023-08-21T03:59:02;18.90;49.10
37906;DHT22;23739;51.448;6.674;2023-08-21T04:01:28;18.80;50.30
37906;DHT22;23739;51.448;6.674;2023-08-21T04:03:54;18.80;49.40
37906;DHT22;23739;51.448;6.674;2023-08-21T04:06:20;18.70;51.30
37906;DHT22;23739;51.448;6.674;2023-08-21T04:08:46;18.70;54.20
37906;DHT22;23739;51.448;6.674;2023-08-21T04:11:11;18.70;54.00
37906;DHT22;23739;51.448;6.674;2023-08-21T04:13:37;18.70;53.90
37906;DHT22;23739;51.448;6.674;2023-08-21T04:16:03;18.70;53.80
37906;DHT22;23739;51.448;6.674;2023-08-21T04:18:29;18.70;55.00
37906;DHT22;23739;51.448;6.674;2023-08-21T04:20:55;18.70;54.90
37906;DHT22;23739;51.448;6.674;2023-08-21T04:23:20;18.70;55.60
37906;DHT22;23739;51.448;6.674;2023-08-21T04:25:46;18.80;54.00
37906;DHT22;23739;51.448;6.674;2023-08-21T04:28:11;18.70;55.90
37906;DHT22;23739;51.448;6.674;2023-08-21T04:30:40;18.80;56.30
37906;DHT22;23739;51.448;6.674;2023-08-21T04:33:06;18.80;55.60
37906;DHT22;23739;51.448;6.674;2023-08-21T04:35:37;18.80;54.80
37906;DHT22;23739;51.448;6.674;2023-08-21T04:38:03;18.80;54.60
37906;DHT22;23739;51.448;6.674;2023-08-21T04:40:29;18.90;54.10
37906;DHT22;23739;51.448;6.674;2023-08-21T04:42:54;18.90;54.10
37906;DHT22;23739;51.448;6.674;2023-08-21T04:45:20;18.90;53.60
37906;DHT22;23739;51.448;6.674;2023-08-21T04:47:46;18.90;52.90
37906;DHT22;23739;51.448;6.674;2023-08-21T04:50:12;18.90;51.00
37906;DHT22;23739;51.448;6.674;2023-08-21T04:52:38;19.00;51.50
37906;DHT22;23739;51.448;6.674;2023-08-21T04:55:05;19.00;51.40
37906;DHT22;23739;51.448;6.674;2023-08-21T04:57:32;19.00;50.60
37906;DHT22;23739;51.448;6.674;2023-08-21T04:59:58;19.10;50.40
37906;DHT22;23739;51.448;6.674;2023-08-21T05:02:24;19.10;50.80
37906;DHT22;23739;51.448;6.674;2023-08-21T05:04:49;19.10;50.10
37906;DHT22;23739;51.448;6.674;2023-08-21T05:07:15;19.10;48.80
37906;DHT22;23739;51.448;6.674;2023-08-21T05:09:41;19.10;49.10
37906;DHT22;23739;51.448;6.674;2023-08-21T05:12:07;19.10;48.40
37906;DHT22;23739;51.448;6.674;2023-08-21T05:14:33;19.20;48.20
37906;DHT22;23739;51.448;6.674;2023-08-21T05:16:59;19.20;49.60
37906;DHT22;23739;51.448;6.674;2023-08-21T05:19:25;19.20;49.70
37906;DHT22;23739;51.448;6.674;2023-08-21T05:21:50;19.10;49.60
37906;DHT22;23739;51.448;6.674;2023-08-21T05:24:16;19.10;51.20
37906;DHT22;23739;51.448;6.674;2023-08-21T05:26:42;19.20;50.70
37906;DHT22;23739;51.448;6.674;2023-08-21T05:29:08;19.30;51.60
37906;DHT22;23739;51.448;6.674;2023-08-21T05:31:33;19.40;49.20
37906;DHT22;23739;51.448;6.674;2023-08-21T05:33:59;19.50;49.80
37906;DHT22;23739;51.448;6.674;2023-08-21T05:36:25;19.60;47.50
37906;DHT22;23739;51.448;6.674;2023-08-21T05:38:51;19.70;45.30
37906;DHT22;23739;51.448;6.674;2023-08-21T05:41:17;19.80;43.00
37906;DHT22;23739;51.448;6.674;2023-08-21T05:43:43;19.90;43.00
37906;DHT22;23739;51.448;6.674;2023-08-21T05:46:11;20.00;42.10
37906;DHT22;23739;51.448;6.674;2023-08-21T05:48:36;20.20;40.60
37906;DHT22;23739;51.448;6.674;2023-08-21T05:51:02;20.40;38.20
37906;DHT22;23739;51.448;6.674;2023-08-21T05:53:29;20.30;39.80
37906;DHT22;23739;51.448;6.674;2023-08-21T05:55:54;20.40;38.10
37906;DHT22;23739;51.448;6.674;2023-08-21T05:58:20;20.50;38.70
37906;DHT22;23739;51.448;6.674;2023-08-21T06:00:47;20.50;37.90
37906;DHT22;23739;51.448;6.674;2023-08-21T06:03:13;20.70;35.70
37906;DHT22;23739;51.448;6.674;2023-08-21T06:05:39;20.60;36.40
37906;DHT22;23739;51.448;6.674;2023-08-21T06:08:04;20.70;36.60
37906;DHT22;23739;51.448;6.674;2023-08-21T06:10:33;20.60;35.10
37906;DHT22;23739;51.448;6.674;2023-08-21T06:12:59;20.80;34.70
37906;DHT22;23739;51.448;6.674;2023-08-21T06:15:25;20.80;34.00
37906;DHT22;23739;51.448;6.674;2023-08-21T06:17:50;21.00;31.10
37906;DHT22;23739;51.448;6.674;2023-08-21T06:20:16;21.30;29.70
37906;DHT22;23739;51.448;6.674;2023-08-21T06:22:44;21.50;29.50
37906;DHT22;23739;51.448;6.674;2023-08-21T06:25:09;21.50;26.20
37906;DHT22;23739;51.448;6.674;2023-08-21T06:27:35;21.70;26.50
37906;DHT22;23739;51.448;6.674;2023-08-21T06:30:01;22.20;22.60
37906;DHT22;23739;51.448;6.674;2023-08-21T06:32:27;22.10;22.00
37906;DHT22;23739;51.448;6.674;2023-08-21T06:34:52;22.00;21.70
37906;DHT22;23739;51.448;6.674;2023-08-21T06:37:18;22.00;21.60
37906;DHT22;23739;51.448;6.674;2023-08-21T06:39:44;22.20;23.10
37906;DHT22;23739;51.448;6.674;2023-08-21T06:42:09;22.20;19.80
37906;DHT22;23739;51.448;6.674;2023-08-21T06:44:35;22.20;19.40
37906;DHT22;23739;51.448;6.674;2023-08-21T06:47:01;22.30;19.20
37906;DHT22;23739;51.448;6.674;2023-08-21T06:49:27;22.50;15.50
37906;DHT22;23739;51.448;6.674;2023-08-21T06:51:53;22.30;15.80
37906;DHT22;23739;51.448;6.674;2023-08-21T06:54:19;22.50;16.10
37906;DHT22;23739;51.448;6.674;2023-08-21T06:56:44;22.50;16.00
37906;DHT22;23739;51.448;6.674;2023-08-21T06:59:10;22.30;15.10
37906;DHT22;23739;51.448;6.674;2023-08-21T07:01:36;22.60;16.30
37906;DHT22;23739;51.448;6.674;2023-08-21T07:04:02;22.90;17.70
37906;DHT22;23739;51.448;6.674;2023-08-21T07:06:28;22.80;11.00
37906;DHT22;23739;51.448;6.674;2023-08-21T07:08:54;22.80;11.70
37906;DHT22;23739;51.448;6.674;2023-08-21T07:11:20;22.70;15.10
37906;DHT22;23739;51.448;6.674;2023-08-21T07:13:46;22.70;10.70
37906;DHT22;23739;51.448;6.674;2023-08-21T07:16:12;22.90;12.20
37906;DHT22;23739;51.448;6.674;2023-08-21T07:18:38;23.00;11.80
37906;DHT22;23739;51.448;6.674;2023-08-21T07:21:04;23.20;8.50
37906;DHT22;23739;51.448;6.674;2023-08-21T07:23:31;23.10;9.90
37906;DHT22;23739;51.448;6.674;2023-08-21T07:25:58;23.50;10.10
37906;DHT22;23739;51.448;6.674;2023-08-21T07:28:24;23.20;9.80
37906;DHT22;23739;51.448;6.674;2023-08-21T07:30:57;22.80;14.60
37906;DHT22;23739;51.448;6.674;2023-08-21T07:33:26;22.90;11.20
37906;DHT22;23739;51.448;6.674;2023-08-21T07:36:03;22.70;13.40
37906;DHT22;23739;51.448;6.674;2023-08-21T07:38:30;22.50;12.00
37906;DHT22;23739;51.448;6.674;2023-08-21T07:41:12;22.70;14.20
37906;DHT22;23739;51.448;6.674;2023-08-21T07:43:40;22.80;13.40
37906;DHT22;23739;51.448;6.674;2023-08-21T07:46:07;23.20;9.90
37906;DHT22;23739;51.448;6.674;2023-08-21T07:48:35;23.10;11.20
37906;DHT22;23739;51.448;6.674;2023-08-21T07:51:01;22.90;9.60
37906;DHT22;23739;51.448;6.674;2023-08-21T07:53:27;23.00;10.30
37906;DHT22;23739;51.448;6.674;2023-08-21T07:55:53;23.50;9.80
37906;DHT22;23739;51.448;6.674;2023-08-21T07:58:19;24.10;9.00
37906;DHT22;23739;51.448;6.674;2023-08-21T08:00:45;24.30;7.70
37906;DHT22;23739;51.448;6.674;2023-08-21T08:03:11;24.60;5.90
37906;DHT22;23739;51.448;6.674;2023-08-21T08:05:40;24.10;3.40
37906;DHT22;23739;51.448;6.674;2023-08-21T08:08:06;24.40;6.30
37906;DHT22;23739;51.448;6.674;2023-08-21T08:10:32;24.40;4.30
37906;DHT22;23739;51.448;6.674;2023-08-21T08:12:57;25.00;5.00
37906;DHT22;23739;51.448;6.674;2023-08-21T08:15:23;24.80;1.00
37906;DHT22;23739;51.448;6.674;2023-08-21T08:17:49;24.70;1.60
37906;DHT22;23739;51.448;6.674;2023-08-21T08:20:19;24.70;2.30
37906;DHT22;23739;51.448;6.674;2023-08-21T08:22:44;25.40;5.20
37906;DHT22;23739;51.448;6.674;2023-08-21T08:25:10;25.40;1.00
37906;DHT22;23739;51.448;6.674;2023-08-21T08:27:36;25.10;1.00
37906;DHT22;23739;51.448;6.674;2023-08-21T08:30:03;25.20;1.00
37906;DHT22;23739;51.448;6.674;2023-08-21T08:32:29;25.90;1.00
37906;DHT22;23739;51.448;6.674;2023-08-21T08:34:55;26.00;1.00
37906;DHT22;23739;51.448;6.674;2023-08-21T08:37:21;25.60;1.00
37906;DHT22;23739;51.448;6.674;2023-08-21T08:39:47;25.90;1.00
37906;DHT22;23739;51.448;6.674;2023-08-21T08:42:14;26.60;1.00
37906;DHT22;23739;51.448;6.674;2023-08-21T08:44:41;27.00;1.00
37906;DHT22;23739;51.448;6.674;2023-08-21T08:47:11;26.70;1.00
37906;DHT22;23739;51.448;6.674;2023-08-21T08:49:40;26.30;1.00
37906;DHT22;23739;51.448;6.674;2023-08-21T08:52:06;26.60;1.00
37906;DHT22;23739;51.448;6.674;2023-08-21T08:54:32;27.20;1.00
37906;DHT22;23739;51.448;6.674;2023-08-21T08:57:00;27.30;1.00
37906;DHT22;23739;51.448;6.674;2023-08-21T08:59:30;27.70;1.00
37906;DHT22;23739;51.448;6.674;2023-08-21T09:01:56;27.50;1.00
37906;DHT22;23739;51.448;6.674;2023-08-21T09:04:22;27.20;1.00
37906;DHT22;23739;51.448;6.674;2023-08-21T09:06:48;28.10;1.00
37906;DHT22;23739;51.448;6.674;2023-08-21T09:09:13;28.10;1.00
37906;DHT22;23739;51.448;6.674;2023-08-21T09:11:43;28.10;1.00
37906;DHT22;23739;51.448;6.674;2023-08-21T09:14:10;28.40;1.00
37906;DHT22;23739;51.448;6.674;2023-08-21T09:16:37;28.40;1.00
37906;DHT22;23739;51.448;6.674;2023-08-21T09:19:03;27.30;1.00
37906;DHT22;23739;51.448;6.674;2023-08-21T09:21:29;27.90;1.00
37906;DHT22;23739;51.448;6.674;2023-08-21T09:23:59;27.80;1.00
37906;DHT22;23739;51.448;6.674;2023-08-21T09:26:27;26.90;1.00
37906;DHT22;23739;51.448;6.674;2023-08-21T09:28:55;26.80;1.00
37906;DHT22;23739;51.448;6.674;2023-08-21T09:31:29;27.20;1.00
37906;DHT22;23739;51.448;6.674;2023-08-21T09:33:57;27.00;1.00
37906;DHT22;23739;51.448;6.674;2023-08-21T09:36:23;27.10;1.00
37906;DHT22;23739;51.448;6.674;2023-08-21T09:38:51;27.40;1.00
37906;DHT22;23739;51.448;6.674;2023-08-21T09:41:19;27.20;1.00
37906;DHT22;23739;51.448;6.674;2023-08-21T09:43:45;27.00;1.00
37906;DHT22;23739;51.448;6.674;2023-08-21T09:46:15;26.70;1.00
37906;DHT22;23739;51.448;6.674;2023-08-21T09:48:45;27.10;1.00
37906;DHT22;23739;51.448;6.674;2023-08-21T09:51:12;26.80;1.00
37906;DHT22;23739;51.448;6.674;2023-08-21T09:53:38;27.20;1.00
37906;DHT22;23739;51.448;6.674;2023-08-21T09:56:05;27.50;1.00
37906;DHT22;23739;51.448;6.674;2023-08-21T09:58:31;27.40;1.00
37906;DHT22;23739;51.448;6.674;2023-08-21T10:00:59;27.30;1.00
37906;DHT22;23739;51.448;6.674;2023-08-21T10:03:25;27.50;1.00
37906;DHT22;23739;51.448;6.674;2023-08-21T10:05:53;27.50;1.00
37906;DHT22;23739;51.448;6.674;2023-08-21T10:08:24;27.60;1.00
37906;DHT22;23739;51.448;6.674;2023-08-21T10:10:50;27.50;1.00
37906;DHT22;23739;51.448;6.674;2023-08-21T10:13:16;27.30;1.00
37906;DHT22;23739;51.448;6.674;2023-08-21T10:15:43;27.70;1.00
37906;DHT22;23739;51.448;6.674;2023-08-21T10:18:30;28.50;1.00
37906;DHT22;23739;51.448;6.674;2023-08-21T10:21:13;28.60;1.00
37906;DHT22;23739;51.448;6.674;2023-08-21T10:23:40;28.30;1.00
37906;DHT22;23739;51.448;6.674;2023-08-21T10:26:09;28.40;1.00
37906;DHT22;23739;51.448;6.674;2023-08-21T10:28:58;27.80;1.00
37906;DHT22;23739;51.448;6.674;2023-08-21T10:33:56;28.80;1.00
37906;DHT22;23739;51.448;6.674;2023-08-21T10:39:25;29.00;1.00
37906;DHT22;23739;51.448;6.674;2023-08-21T10:42:00;29.70;1.00
37906;DHT22;23739;51.448;6.674;2023-08-21T10:50:02;28.40;1.00
37906;DHT22;23739;51.448;6.674;2023-08-21T10:52:31;28.20;1.00
37906;DHT22;23739;51.448;6.674;2023-08-21T10:54:59;28.40;1.00
37906;DHT22;23739;51.448;6.674;2023-08-21T10:57:27;28.30;1.00
37906;DHT22;23739;51.448;6.674;2023-08-21T11:00:13;28.60;1.00
37906;DHT22;23739;51.448;6.674;2023-08-21T11:02:45;29.20;1.00
37906;DHT22;23739;51.448;6.674;2023-08-21T11:05:12;28.50;1.00
37906;DHT22;23739;51.448;6.674;2023-08-21T11:07:42;28.40;1.00
37906;DHT22;23739;51.448;6.674;2023-08-21T11:10:17;28.30;1.00
37906;DHT22;23739;51.448;6.674;2023-08-21T11:12:55;28.50;1.00
37906;DHT22;23739;51.448;6.674;2023-08-21T11:15:21;29.20;1.00
37906;DHT22;23739;51.448;6.674;2023-08-21T11:20:20;28.80;1.00
37906;DHT22;23739;51.448;6.674;2023-08-21T11:22:46;29.10;1.00
37906;DHT22;23739;51.448;6.674;2023-08-21T11:25:11;29.40;1.00
37906;DHT22;23739;51.448;6.674;2023-08-21T11:27:37;28.70;1.00
37906;DHT22;23739;51.448;6.674;2023-08-21T11:30:04;30.00;1.00
37906;DHT22;23739;51.448;6.674;2023-08-21T11:32:30;29.50;1.00
37906;DHT22;23739;51.448;6.674;2023-08-21T11:34:57;29.40;1.00
37906;DHT22;23739;51.448;6.674;2023-08-21T11:37:27;28.30;1.00
37906;DHT22;23739;51.448;6.674;2023-08-21T11:39:56;28.20;1.00
37906;DHT22;23739;51.448;6.674;2023-08-21T11:42:30;30.00;1.00
37906;DHT22;23739;51.448;6.674;2023-08-21T11:44:56;31.30;1.00
37906;DHT22;23739;51.448;6.674;2023-08-21T11:47:23;30.30;1.00
37906;DHT22;23739;51.448;6.674;2023-08-21T11:49:49;29.00;1.00
37906;DHT22;23739;51.448;6.674;2023-08-21T11:52:23;29.10;1.00
37906;DHT22;23739;51.448;6.674;2023-08-21T11:54:53;28.70;1.00
37906;DHT22;23739;51.448;6.674;2023-08-21T11:57:20;29.90;1.00
37906;DHT22;23739;51.448;6.674;2023-08-21T11:59:54;29.50;1.00
37906;DHT22;23739;51.448;6.674;2023-08-21T12:02:26;28.70;1.00
37906;DHT22;23739;51.448;6.674;2023-08-21T12:05:14;29.30;1.00
37906;DHT22;23739;51.448;6.674;2023-08-21T12:07:40;30.70;1.00
37906;DHT22;23739;51.448;6.674;2023-08-21T12:10:06;29.50;1.00
37906;DHT22;23739;51.448;6.674;2023-08-21T12:12:32;29.40;1.00
37906;DHT22;23739;51.448;6.674;2023-08-21T12:14:58;30.00;1.00
37906;DHT22;23739;51.448;6.674;2023-08-21T12:17:23;30.40;1.00
37906;DHT22;23739;51.448;6.674;2023-08-21T12:19:49;29.50;1.00
37906;DHT22;23739;51.448;6.674;2023-08-21T12:22:15;29.60;1.00
37906;DHT22;23739;51.448;6.674;2023-08-21T12:24:41;30.00;1.00
37906;DHT22;23739;51.448;6.674;2023-08-21T12:27:07;29.50;1.00
37906;DHT22;23739;51.448;6.674;2023-08-21T12:29:34;28.50;1.00
37906;DHT22;23739;51.448;6.674;2023-08-21T12:31:59;28.60;1.00
37906;DHT22;23739;51.448;6.674;2023-08-21T12:34:26;30.10;1.00
37906;DHT22;23739;51.448;6.674;2023-08-21T12:36:52;29.30;1.00
37906;DHT22;23739;51.448;6.674;2023-08-21T12:39:17;31.40;1.00
37906;DHT22;23739;51.448;6.674;2023-08-21T12:41:43;31.00;1.00
37906;DHT22;23739;51.448;6.674;2023-08-21T12:44:10;30.10;1.00
37906;DHT22;23739;51.448;6.674;2023-08-21T12:46:36;31.70;1.00
37906;DHT22;23739;51.448;6.674;2023-08-21T12:49:02;32.20;1.00
37906;DHT22;23739;51.448;6.674;2023-08-21T12:51:30;32.10;1.00
37906;DHT22;23739;51.448;6.674;2023-08-21T12:53:56;31.90;1.00
37906;DHT22;23739;51.448;6.674;2023-08-21T12:56:22;31.40;1.00
37906;DHT22;23739;51.448;6.674;2023-08-21T12:58:48;30.10;1.00
37906;DHT22;23739;51.448;6.674;2023-08-21T13:01:14;30.60;1.00
37906;DHT22;23739;51.448;6.674;2023-08-21T13:03:47;30.70;1.00
37906;DHT22;23739;51.448;6.674;2023-08-21T13:06:13;30.40;1.00
37906;DHT22;23739;51.448;6.674;2023-08-21T13:08:39;29.70;1.00
37906;DHT22;23739;51.448;6.674;2023-08-21T13:11:05;30.40;1.00
37906;DHT22;23739;51.448;6.674;2023-08-21T13:13:31;30.70;1.00
37906;DHT22;23739;51.448;6.674;2023-08-21T13:15:57;30.30;1.00
37906;DHT22;23739;51.448;6.674;2023-08-21T13:18:24;33.50;1.00
37906;DHT22;23739;51.448;6.674;2023-08-21T13:20:50;32.10;1.00
37906;DHT22;23739;51.448;6.674;2023-08-21T13:23:15;31.20;1.00
37906;DHT22;23739;51.448;6.674;2023-08-21T13:25:41;30.80;1.00
37906;DHT22;23739;51.448;6.674;2023-08-21T13:28:07;30.30;1.00
37906;DHT22;23739;51.448;6.674;2023-08-21T13:30:33;30.00;1.00
37906;DHT22;23739;51.448;6.674;2023-08-21T13:32:59;29.40;1.00
37906;DHT22;23739;51.448;6.674;2023-08-21T13:35:25;30.10;1.00
37906;DHT22;23739;51.448;6.674;2023-08-21T13:37:51;31.60;1.00
37906;DHT22;23739;51.448;6.674;2023-08-21T13:40:17;31.10;1.00
37906;DHT22;23739;51.448;6.674;2023-08-21T13:42:47;32.40;1.00
37906;DHT22;23739;51.448;6.674;2023-08-21T13:45:16;30.70;1.00
37906;DHT22;23739;51.448;6.674;2023-08-21T13:47:47;30.00;1.00
37906;DHT22;23739;51.448;6.674;2023-08-21T13:50:13;30.70;1.00
37906;DHT22;23739;51.448;6.674;2023-08-21T13:52:40;32.40;1.00
37906;DHT22;23739;51.448;6.674;2023-08-21T13:55:07;32.60;1.00
37906;DHT22;23739;51.448;6.674;2023-08-21T13:57:33;31.50;1.00
37906;DHT22;23739;51.448;6.674;2023-08-21T13:59:59;31.60;1.00
37906;DHT22;23739;51.448;6.674;2023-08-21T14:02:25;32.20;1.00
37906;DHT22;23739;51.448;6.674;2023-08-21T14:04:51;31.10;1.00
37906;DHT22;23739;51.448;6.674;2023-08-21T14:07:17;31.40;1.00
37906;DHT22;23739;51.448;6.674;2023-08-21T14:09:43;31.30;1.00
37906;DHT22;23739;51.448;6.674;2023-08-21T14:12:09;32.20;1.00
37906;DHT22;23739;51.448;6.674;2023-08-21T14:14:35;33.40;1.00
37906;DHT22;23739;51.448;6.674;2023-08-21T14:17:01;34.50;1.00
37906;DHT22;23739;51.448;6.674;2023-08-21T14:19:27;32.00;1.00
37906;DHT22;23739;51.448;6.674;2023-08-21T14:21:53;32.80;1.00
37906;DHT22;23739;51.448;6.674;2023-08-21T14:24:19;31.40;1.00
37906;DHT22;23739;51.448;6.674;2023-08-21T14:26:45;30.60;1.00
37906;DHT22;23739;51.448;6.674;2023-08-21T14:29:11;30.80;1.00
37906;DHT22;23739;51.448;6.674;2023-08-21T14:31:37;31.50;1.00
37906;DHT22;23739;51.448;6.674;2023-08-21T14:34:02;33.50;1.00
37906;DHT22;23739;51.448;6.674;2023-08-21T14:36:28;34.60;1.00
37906;DHT22;23739;51.448;6.674;2023-08-21T14:38:54;34.30;1.00
37906;DHT22;23739;51.448;6.674;2023-08-21T14:41:19;33.50;1.00
37906;DHT22;23739;51.448;6.674;2023-08-21T14:43:45;33.10;1.00
37906;DHT22;23739;51.448;6.674;2023-08-21T14:46:11;34.60;1.00
37906;DHT22;23739;51.448;6.674;2023-08-21T14:48:37;33.80;1.00
37906;DHT22;23739;51.448;6.674;2023-08-21T14:51:04;32.80;1.00
37906;DHT22;23739;51.448;6.674;2023-08-21T14:53:30;33.70;1.00
37906;DHT22;23739;51.448;6.674;2023-08-21T14:55:56;35.00;1.00
37906;DHT22;23739;51.448;6.674;2023-08-21T14:58:22;33.50;1.00
37906;DHT22;23739;51.448;6.674;2023-08-21T15:00:49;32.40;1.00
37906;DHT22;23739;51.448;6.674;2023-08-21T15:03:15;34.10;1.00
37906;DHT22;23739;51.448;6.674;2023-08-21T15:05:41;36.00;1.00
37906;DHT22;23739;51.448;6.674;2023-08-21T15:08:06;35.40;1.00
37906;DHT22;23739;51.448;6.674;2023-08-21T15:10:32;34.30;1.00
37906;DHT22;23739;51.448;6.674;2023-08-21T15:12:58;33.60;1.00
37906;DHT22;23739;51.448;6.674;2023-08-21T15:15:24;33.40;1.00
37906;DHT22;23739;51.448;6.674;2023-08-21T15:17:49;33.10;1.00
37906;DHT22;23739;51.448;6.674;2023-08-21T15:20:15;33.50;1.00
37906;DHT22;23739;51.448;6.674;2023-08-21T15:22:41;32.60;1.00
37906;DHT22;23739;51.448;6.674;2023-08-21T15:25:09;33.50;1.00
37906;DHT22;23739;51.448;6.674;2023-08-21T15:27:35;32.50;1.00
37906;DHT22;23739;51.448;6.674;2023-08-21T15:30:01;32.30;1.00
37906;DHT22;23739;51.448;6.674;2023-08-21T15:32:27;33.20;1.00
37906;DHT22;23739;51.448;6.674;2023-08-21T15:34:53;33.60;1.00
37906;DHT22;23739;51.448;6.674;2023-08-21T15:37:18;32.10;1.00
37906;DHT22;23739;51.448;6.674;2023-08-21T15:39:44;32.60;1.00
37906;DHT22;23739;51.448;6.674;2023-08-21T15:42:10;33.00;1.00
37906;DHT22;23739;51.448;6.674;2023-08-21T15:44:35;31.50;1.00
37906;DHT22;23739;51.448;6.674;2023-08-21T15:47:01;30.60;1.00
37906;DHT22;23739;51.448;6.674;2023-08-21T15:49:27;32.20;1.00
37906;DHT22;23739;51.448;6.674;2023-08-21T15:51:53;34.30;1.00
37906;DHT22;23739;51.448;6.674;2023-08-21T15:54:19;34.60;1.00